Piave, Mississippi
Current Conditions -  °F | °C
As of 8:53 PM on Sunday 21 Dec 2014 (Local Time) from KHBG Reporting Station
Haze Haze  
Wind Chill: 52°   Ceiling: 400
Heat Index: 52°   Visibility: 3mi
Dew Point: 51°   Wind: 5mph
Humidity: 97%   Direction: 50°NE
Pressure: 30.01"   Gusts: NA
Location:  31.3326°N, 88.8854°W
Report Text: KHBG 220253Z AUTO 05004KT 3SM BR OVC004 11/11 A3001 RMK AO2 SLP161 T01110106 56009
Loading
Personal Weather Stations






























Interactive Weather Map New forecast layout! Learn more

10-Day Weather Forecast

Advertisements
Track Severe Weather on mobile